createdAt,value
2023-10-09T00:01:14.571Z,6.10
2023-10-09T00:03:42.558Z,6.43
2023-10-09T00:06:09.205Z,6.78
2023-10-09T00:08:38.319Z,6.28
2023-10-09T00:11:17.716Z,5.70
2023-10-09T00:13:58.490Z,6.53
2023-10-09T00:16:35.787Z,6.05
2023-10-09T00:19:15.557Z,5.97
2023-10-09T00:21:42.711Z,6.00
2023-10-09T00:24:14.713Z,6.15
2023-10-09T00:26:49.077Z,5.93
2023-10-09T00:29:17.829Z,6.00
2023-10-09T00:31:51.285Z,5.63
2023-10-09T00:34:21.046Z,5.88
2023-10-09T00:36:53.413Z,5.10
2023-10-09T00:39:55.237Z,5.40
2023-10-09T00:42:36.657Z,5.60
2023-10-09T00:45:06.396Z,5.63
2023-10-09T00:47:35.811Z,5.75
2023-10-09T00:50:22.256Z,5.53
2023-10-09T00:52:51.994Z,5.35
2023-10-09T00:55:22.607Z,5.05
2023-10-09T00:57:51.551Z,4.40
2023-10-09T01:00:34.321Z,4.70
2023-10-09T01:03:14.354Z,4.50
2023-10-09T01:05:52.354Z,4.68
2023-10-09T01:08:45.194Z,4.88
2023-10-09T01:11:11.682Z,4.75
2023-10-09T01:13:47.775Z,5.10
2023-10-09T01:16:17.226Z,4.85
2023-10-09T01:19:25.576Z,5.47
2023-10-09T01:21:52.643Z,4.82
2023-10-09T01:24:21.189Z,4.90
2023-10-09T01:26:50.971Z,5.00
2023-10-09T01:29:20.365Z,5.20
2023-10-09T01:31:57.453Z,4.78
2023-10-09T01:34:42.777Z,4.80
2023-10-09T01:37:18.893Z,5.25
2023-10-09T01:39:46.625Z,4.97
2023-10-09T01:42:24.584Z,4.95
2023-10-09T01:44:51.931Z,5.43
2023-10-09T01:47:19.962Z,5.00
2023-10-09T01:49:50.352Z,5.38
2023-10-09T01:52:17.662Z,5.10
2023-10-09T01:54:49.983Z,4.88
2023-10-09T01:57:23.127Z,4.78
2023-10-09T01:59:54.788Z,4.57
2023-10-09T02:02:28.753Z,4.88
2023-10-09T02:05:06.863Z,4.90
2023-10-09T02:07:41.907Z,4.50
2023-10-09T02:10:22.542Z,4.80
2023-10-09T02:12:59.185Z,4.63
2023-10-09T02:15:45.506Z,6.13
2023-10-09T02:18:24.242Z,5.40
2023-10-09T02:20:57.157Z,5.20
2023-10-09T02:23:31.897Z,4.87
2023-10-09T02:26:05.921Z,5.63
2023-10-09T02:28:34.061Z,4.88
2023-10-09T02:31:22.959Z,4.97
2023-10-09T02:33:54.633Z,4.72
2023-10-09T02:36:21.238Z,4.97
2023-10-09T02:38:49.907Z,5.10
2023-10-09T02:41:17.046Z,4.93
2023-10-09T02:43:51.364Z,5.15
2023-10-09T02:46:30.832Z,5.13
2023-10-09T02:48:58.688Z,4.47
2023-10-09T02:51:28.579Z,5.03
2023-10-09T02:53:59.238Z,4.90
2023-10-09T02:56:36.962Z,4.85
2023-10-09T02:59:07.512Z,5.07
2023-10-09T03:01:35.783Z,4.60
2023-10-09T03:04:03.669Z,4.93
2023-10-09T03:06:33.370Z,4.40
2023-10-09T03:08:59.887Z,4.45
2023-10-09T03:11:27.795Z,4.80
2023-10-09T03:13:54.523Z,4.47
2023-10-09T03:16:22.588Z,4.28
2023-10-09T03:18:53.655Z,4.78
2023-10-09T03:21:20.768Z,4.82
2023-10-09T03:23:51.340Z,4.63
2023-10-09T03:26:22.065Z,4.70
2023-10-09T03:28:49.582Z,4.72
2023-10-09T03:31:16.304Z,4.93
2023-10-09T03:33:42.816Z,4.97
2023-10-09T03:36:18.018Z,4.93
2023-10-09T03:38:46.589Z,4.90
2023-10-09T03:41:17.393Z,4.50
2023-10-09T03:43:44.319Z,4.22
2023-10-09T03:46:23.706Z,4.72
2023-10-09T03:48:50.982Z,4.60
2023-10-09T03:51:23.501Z,4.93
2023-10-09T03:53:50.769Z,4.50
2023-10-09T03:56:18.643Z,4.93
2023-10-09T03:58:50.010Z,4.63
2023-10-09T04:01:29.554Z,5.25
2023-10-09T04:03:56.805Z,4.93
2023-10-09T04:06:29.856Z,4.93
2023-10-09T04:08:56.258Z,4.90
2023-10-09T04:11:25.852Z,6.55
2023-10-09T04:13:53.903Z,5.63
2023-10-09T04:16:32.937Z,5.43
2023-10-09T04:19:07.008Z,5.20
2023-10-09T04:21:36.642Z,4.75
2023-10-09T04:24:13.339Z,5.18
2023-10-09T04:26:45.500Z,5.05
2023-10-09T04:29:19.456Z,4.97
2023-10-09T04:31:52.736Z,5.38
2023-10-09T04:34:49.395Z,5.22
2023-10-09T04:37:37.915Z,5.60
2023-10-09T04:40:16.029Z,5.40
2023-10-09T04:42:59.128Z,5.60
2023-10-09T04:45:44.388Z,5.07
2023-10-09T04:48:11.475Z,4.60
2023-10-09T04:50:46.590Z,4.53
2023-10-09T04:53:18.827Z,4.85
2023-10-09T04:55:54.954Z,4.32
2023-10-09T04:58:25.590Z,5.03
2023-10-09T05:01:05.731Z,5.43
2023-10-09T05:03:55.009Z,5.30
2023-10-09T05:06:22.228Z,5.03
2023-10-09T05:08:49.900Z,5.60
2023-10-09T05:11:35.485Z,5.57
2023-10-09T05:14:14.493Z,4.78
2023-10-09T05:16:55.229Z,5.28
2023-10-09T05:19:42.909Z,5.03
2023-10-09T05:22:17.777Z,5.18
2023-10-09T05:24:46.367Z,5.40
2023-10-09T05:27:19.011Z,7.07
2023-10-09T05:30:14.231Z,6.50
2023-10-09T05:32:49.478Z,7.15
2023-10-09T05:35:21.379Z,6.38
2023-10-09T05:37:47.938Z,5.68
2023-10-09T05:40:17.266Z,5.88
2023-10-09T05:42:44.755Z,5.30
2023-10-09T05:45:18.567Z,5.05
2023-10-09T05:47:55.770Z,5.45
2023-10-09T05:50:25.456Z,5.43
2023-10-09T05:52:52.237Z,5.00
2023-10-09T05:55:41.553Z,5.40
2023-10-09T05:58:26.376Z,4.90
2023-10-09T06:01:11.296Z,4.82
2023-10-09T06:03:49.833Z,5.13
2023-10-09T06:06:34.081Z,5.13
2023-10-09T06:09:17.104Z,4.60
2023-10-09T06:11:51.356Z,4.53
2023-10-09T06:14:46.982Z,4.88
2023-10-09T06:17:39.513Z,5.15
2023-10-09T06:20:26.283Z,6.20
2023-10-09T06:22:58.688Z,5.45
2023-10-09T06:25:33.891Z,5.63
2023-10-09T06:28:00.801Z,5.80
2023-10-09T06:30:28.637Z,6.07
2023-10-09T06:33:21.391Z,5.55
2023-10-09T06:35:56.626Z,5.70
2023-10-09T06:38:24.142Z,5.10
2023-10-09T06:40:53.987Z,5.25
2023-10-09T06:43:23.905Z,4.78
2023-10-09T06:46:13.078Z,5.10
2023-10-09T06:48:39.569Z,5.75
2023-10-09T06:51:38.982Z,5.50
2023-10-09T06:54:08.458Z,4.50
2023-10-09T06:56:34.937Z,4.70
2023-10-09T06:59:22.569Z,5.10
2023-10-09T07:02:10.077Z,5.30
2023-10-09T07:04:36.805Z,5.05
2023-10-09T07:07:08.510Z,4.93
2023-10-09T07:09:44.214Z,5.70
2023-10-09T07:12:14.377Z,4.70
2023-10-09T07:14:40.887Z,4.32
2023-10-09T07:17:29.517Z,4.15
2023-10-09T07:19:56.034Z,4.57
2023-10-09T07:22:22.771Z,4.45
2023-10-09T07:24:58.862Z,4.90
2023-10-09T07:27:44.732Z,4.47
2023-10-09T07:30:30.150Z,4.32
2023-10-09T07:33:05.060Z,4.07
2023-10-09T07:35:43.529Z,4.43
2023-10-09T07:38:10.560Z,3.88
2023-10-09T07:40:58.861Z,4.63
2023-10-09T07:43:32.562Z,4.50
2023-10-09T07:48:28.752Z,4.30
2023-10-09T07:50:59.017Z,4.60
2023-10-09T07:53:30.132Z,4.10
2023-10-09T07:55:59.588Z,3.83
2023-10-09T07:58:28.789Z,4.45
2023-10-09T08:01:07.670Z,4.18
2023-10-09T08:03:35.980Z,4.32
2023-10-09T08:06:28.395Z,4.22
2023-10-09T08:09:19.799Z,4.28
2023-10-09T08:12:15.136Z,4.32
2023-10-09T08:14:46.489Z,4.20
2023-10-09T08:17:16.518Z,3.97
2023-10-09T08:19:55.700Z,4.22
2023-10-09T08:22:25.693Z,4.15
2023-10-09T08:24:58.289Z,4.35
2023-10-09T08:27:34.104Z,4.80
2023-10-09T08:30:19.655Z,3.97
2023-10-09T08:35:34.309Z,3.95
2023-10-09T08:38:04.721Z,3.72
2023-10-09T08:40:38.328Z,4.22
2023-10-09T08:45:32.614Z,4.82
2023-10-09T08:48:02.040Z,4.65
2023-10-09T08:50:29.909Z,4.68
2023-10-09T08:52:56.960Z,4.40
2023-10-09T08:55:23.436Z,4.43
2023-10-09T08:57:53.587Z,4.35
2023-10-09T09:00:25.056Z,4.22
2023-10-09T09:02:51.715Z,4.57
2023-10-09T09:05:19.424Z,4.07
2023-10-09T09:07:45.858Z,3.50
2023-10-09T09:10:22.631Z,4.57
2023-10-09T09:12:54.595Z,4.30
2023-10-09T09:15:21.527Z,4.30
2023-10-09T09:17:50.783Z,4.03
2023-10-09T09:20:24.556Z,4.85
2023-10-09T09:25:18.484Z,4.47
2023-10-09T09:27:51.198Z,4.63
2023-10-09T09:30:25.173Z,4.17
2023-10-09T09:33:11.598Z,4.53
2023-10-09T09:35:37.952Z,4.53
2023-10-09T09:38:07.788Z,4.47
2023-10-09T09:40:42.514Z,4.15
2023-10-09T09:43:22.586Z,4.35
2023-10-09T09:45:50.715Z,4.55
2023-10-09T09:48:18.076Z,4.20
2023-10-09T09:50:46.509Z,4.47
2023-10-09T09:53:20.027Z,4.75
2023-10-09T09:55:57.340Z,4.15
2023-10-09T09:58:45.472Z,3.80
2023-10-09T10:01:25.986Z,4.72
2023-10-09T10:03:57.332Z,4.38
2023-10-09T10:06:27.552Z,4.53
2023-10-09T10:08:56.083Z,3.97
2023-10-09T10:11:41.876Z,4.78
2023-10-09T10:14:21.088Z,4.05
2023-10-09T10:17:19.871Z,4.28
2023-10-09T10:20:05.940Z,3.72
2023-10-09T10:22:33.971Z,5.38
2023-10-09T10:25:03.965Z,4.45
2023-10-09T10:27:34.013Z,4.65
2023-10-09T10:30:12.838Z,5.30
2023-10-09T10:33:15.237Z,4.63
2023-10-09T10:35:44.490Z,4.82
2023-10-09T10:38:33.786Z,4.32
2023-10-09T10:41:13.257Z,4.35
2023-10-09T10:43:53.735Z,4.22
2023-10-09T10:46:39.175Z,4.90
2023-10-09T10:49:16.913Z,4.45
2023-10-09T10:51:49.290Z,5.53
2023-10-09T10:54:34.850Z,4.75
2023-10-09T10:57:04.617Z,4.05
2023-10-09T10:59:34.385Z,4.63
2023-10-09T11:02:03.954Z,4.03
2023-10-09T11:04:33.775Z,5.40
2023-10-09T11:07:19.491Z,4.78
2023-10-09T11:10:08.106Z,4.20
2023-10-09T11:12:46.665Z,4.32
2023-10-09T11:15:22.617Z,4.57
2023-10-09T11:18:06.249Z,4.82
2023-10-09T11:20:34.730Z,4.40
2023-10-09T11:23:19.311Z,4.30
2023-10-09T11:25:52.225Z,4.75
2023-10-09T11:28:31.028Z,4.70
2023-10-09T11:31:07.774Z,4.32
2023-10-09T11:33:46.621Z,5.18
2023-10-09T11:36:13.024Z,4.25
2023-10-09T11:38:39.729Z,4.78
2023-10-09T11:41:24.251Z,4.18
2023-10-09T11:43:55.136Z,4.15
2023-10-09T11:46:38.140Z,4.40
2023-10-09T11:49:23.349Z,4.05
2023-10-09T11:52:08.736Z,4.50
2023-10-09T11:54:36.195Z,4.85
2023-10-09T11:57:05.245Z,4.68
2023-10-09T11:59:38.687Z,4.60
2023-10-09T12:04:32.519Z,3.90
2023-10-09T12:07:07.492Z,5.43
2023-10-09T12:09:35.600Z,4.45
2023-10-09T12:12:05.638Z,4.65
2023-10-09T12:14:36.009Z,4.57
2023-10-09T12:17:08.444Z,5.07
2023-10-09T12:19:35.458Z,4.95
2023-10-09T12:22:02.471Z,6.03
2023-10-09T12:24:30.255Z,4.28
2023-10-09T12:26:56.887Z,4.70
2023-10-09T12:29:24.661Z,3.97
2023-10-09T12:31:59.204Z,4.43
2023-10-09T12:34:28.612Z,4.50
2023-10-09T12:36:55.314Z,4.30
2023-10-09T12:39:22.636Z,4.43
2023-10-09T12:41:49.507Z,4.85
2023-10-09T12:44:16.373Z,4.80
2023-10-09T12:46:43.839Z,4.28
2023-10-09T12:49:11.593Z,4.55
2023-10-09T12:51:38.042Z,5.18
2023-10-09T12:54:04.448Z,4.57
2023-10-09T12:56:34.041Z,5.10
2023-10-09T12:59:05.919Z,4.53
2023-10-09T13:01:44.015Z,4.72
2023-10-09T13:04:12.771Z,4.75
2023-10-09T13:06:45.183Z,4.70
2023-10-09T13:09:36.791Z,5.55
2023-10-09T13:12:03.534Z,3.88
2023-10-09T13:14:35.046Z,5.15
2023-10-09T13:17:01.472Z,4.70
2023-10-09T13:19:28.000Z,4.05
2023-10-09T13:21:54.466Z,4.28
2023-10-09T13:24:25.568Z,4.35
2023-10-09T13:26:59.242Z,5.13
2023-10-09T13:31:59.516Z,4.72
2023-10-09T13:34:29.256Z,4.95
2023-10-09T13:36:57.692Z,4.97
2023-10-09T13:39:24.282Z,4.50
2023-10-09T13:42:01.471Z,4.63
2023-10-09T13:44:29.006Z,4.95
2023-10-09T13:46:59.922Z,4.38
2023-10-09T13:49:32.941Z,4.70
2023-10-09T13:52:03.127Z,4.55
2023-10-09T13:54:33.077Z,4.75
2023-10-09T13:56:59.997Z,5.28
2023-10-09T13:59:26.708Z,4.90
2023-10-09T14:01:56.373Z,4.82
2023-10-09T14:04:25.954Z,5.03
2023-10-09T14:06:58.518Z,4.90
2023-10-09T14:09:46.382Z,4.47
2023-10-09T14:12:15.359Z,4.55
2023-10-09T14:14:48.375Z,4.72
2023-10-09T14:17:26.168Z,5.30
2023-10-09T14:19:53.357Z,4.80
2023-10-09T14:22:25.411Z,4.82
2023-10-09T14:24:58.994Z,4.72
2023-10-09T14:30:00.011Z,5.22
2023-10-09T14:32:30.061Z,4.38
2023-10-09T14:35:02.309Z,4.55
2023-10-09T14:37:29.257Z,5.35
2023-10-09T14:39:56.973Z,4.38
2023-10-09T14:42:28.884Z,4.97
2023-10-09T14:44:56.694Z,5.85
2023-10-09T14:47:23.450Z,5.13
2023-10-09T14:49:49.875Z,5.15
2023-10-09T14:52:20.172Z,4.43
2023-10-09T14:54:47.517Z,4.75
2023-10-09T14:57:14.328Z,4.78
2023-10-09T14:59:41.067Z,4.95
2023-10-09T15:02:08.393Z,5.00
2023-10-09T15:04:38.105Z,5.30
2023-10-09T15:07:08.439Z,4.88
2023-10-09T15:09:37.320Z,10.50
2023-10-09T15:12:07.288Z,6.25
2023-10-09T15:14:33.814Z,4.95
2023-10-09T15:17:00.340Z,6.00
2023-10-09T15:19:30.653Z,6.63
2023-10-09T15:21:59.688Z,5.38
2023-10-09T15:24:28.533Z,5.28
2023-10-09T15:26:58.785Z,5.13
2023-10-09T15:29:33.685Z,5.53
2023-10-09T15:32:15.870Z,5.43
2023-10-09T15:34:42.396Z,4.50
2023-10-09T15:37:08.886Z,4.90
2023-10-09T15:39:35.737Z,5.18
2023-10-09T15:42:05.417Z,5.10
2023-10-09T15:44:34.856Z,4.38
2023-10-09T15:47:01.603Z,5.47
2023-10-09T15:49:28.398Z,4.72
2023-10-09T15:51:54.801Z,5.57
2023-10-09T15:54:21.282Z,5.30
2023-10-09T15:56:56.031Z,4.72
2023-10-09T15:59:33.811Z,4.75
2023-10-09T16:02:00.275Z,5.05
2023-10-09T16:04:27.055Z,5.80
2023-10-09T16:06:56.461Z,4.72
2023-10-09T16:09:22.887Z,4.97
2023-10-09T16:11:49.261Z,4.63
2023-10-09T16:14:16.793Z,5.05
2023-10-09T16:16:45.032Z,5.25
2023-10-09T16:19:16.522Z,5.10
2023-10-09T16:21:43.880Z,5.75
2023-10-09T16:24:11.188Z,5.15
2023-10-09T16:26:46.513Z,5.95
2023-10-09T16:29:13.031Z,5.53
2023-10-09T16:31:41.789Z,5.30
2023-10-09T16:34:08.639Z,5.85
2023-10-09T16:36:36.239Z,5.53
2023-10-09T16:39:04.009Z,6.00
2023-10-09T16:41:41.126Z,6.93
2023-10-09T16:44:11.109Z,6.55
2023-10-09T16:46:40.923Z,5.68
2023-10-09T16:49:12.607Z,5.57
2023-10-09T16:51:43.957Z,6.13
2023-10-09T16:54:16.044Z,5.22
2023-10-09T16:56:43.752Z,6.88
2023-10-09T16:59:15.808Z,5.97
2023-10-09T17:01:43.028Z,5.95
2023-10-09T17:04:17.847Z,5.85
2023-10-09T17:06:45.380Z,6.65
2023-10-09T17:09:13.469Z,7.03
2023-10-09T17:11:42.864Z,8.18
2023-10-09T17:14:14.021Z,6.32
2023-10-09T17:16:46.350Z,5.15
2023-10-09T17:19:15.273Z,5.97
2023-10-09T17:21:42.163Z,5.65
2023-10-09T17:24:12.047Z,5.53
2023-10-09T17:26:46.662Z,6.45
2023-10-09T17:29:14.758Z,5.90
2023-10-09T17:31:41.228Z,5.88
2023-10-09T17:34:10.470Z,5.72
2023-10-09T17:36:36.876Z,5.30
2023-10-09T17:39:05.651Z,5.10
2023-10-09T17:41:35.802Z,5.60
2023-10-09T17:44:06.104Z,5.32
2023-10-09T17:46:32.732Z,5.60
2023-10-09T17:48:59.270Z,6.85
2023-10-09T17:51:25.612Z,6.70
2023-10-09T17:53:54.605Z,5.90
2023-10-09T17:56:22.944Z,6.05
2023-10-09T17:58:52.774Z,6.32
2023-10-09T18:01:20.027Z,7.07
2023-10-09T18:03:46.715Z,7.20
2023-10-09T18:06:17.820Z,6.20
2023-10-09T18:08:44.557Z,6.00
2023-10-09T18:11:12.884Z,6.10
2023-10-09T18:13:39.342Z,6.25
2023-10-09T18:16:12.745Z,6.45
2023-10-09T18:18:40.936Z,6.40
2023-10-09T18:21:08.694Z,6.40
2023-10-09T18:23:36.755Z,6.25
2023-10-09T18:26:04.335Z,6.43
2023-10-09T18:28:30.880Z,5.68
2023-10-09T18:30:59.816Z,6.25
2023-10-09T18:33:26.603Z,6.30
2023-10-09T18:35:53.045Z,5.93
2023-10-09T18:38:19.521Z,6.18
2023-10-09T18:40:48.360Z,5.93
2023-10-09T18:43:15.382Z,6.82
2023-10-09T18:45:42.248Z,6.20
2023-10-09T18:48:12.232Z,5.82
2023-10-09T18:50:42.791Z,6.00
2023-10-09T18:53:14.249Z,5.63
2023-10-09T18:55:43.363Z,6.10
2023-10-09T18:58:10.853Z,6.95
2023-10-09T19:00:42.206Z,6.90
2023-10-09T19:03:11.775Z,5.57
2023-10-09T19:05:43.089Z,6.20
2023-10-09T19:08:10.364Z,6.30
2023-10-09T19:10:38.226Z,7.50
2023-10-09T19:13:08.060Z,8.02
2023-10-09T19:15:34.474Z,13.40
2023-10-09T19:18:01.918Z,10.82
2023-10-09T19:20:30.450Z,8.02
2023-10-09T19:22:56.942Z,6.93
2023-10-09T19:25:28.472Z,5.70
2023-10-09T19:27:56.034Z,7.20
2023-10-09T19:30:22.831Z,5.82
2023-10-09T19:32:49.411Z,5.97
2023-10-09T19:35:19.462Z,6.50
2023-10-09T19:37:49.198Z,5.88
2023-10-09T19:40:15.725Z,6.90
2023-10-09T19:42:42.174Z,5.82
2023-10-09T19:45:11.426Z,6.80
2023-10-09T19:47:40.986Z,7.15
2023-10-09T19:50:15.561Z,8.65
2023-10-09T19:52:42.600Z,8.88
2023-10-09T19:55:09.938Z,8.07
2023-10-09T19:57:36.312Z,9.38
2023-10-09T20:00:07.462Z,9.88
2023-10-09T20:02:35.797Z,8.93
2023-10-09T20:05:04.998Z,7.25
2023-10-09T20:07:31.383Z,6.88
2023-10-09T20:10:02.615Z,6.50
2023-10-09T20:12:30.952Z,6.43
2023-10-09T20:15:00.033Z,7.20
2023-10-09T20:17:26.501Z,6.63
2023-10-09T20:19:54.272Z,6.70
2023-10-09T20:22:21.222Z,6.78
2023-10-09T20:24:47.787Z,10.45
2023-10-09T20:27:19.738Z,8.30
2023-10-09T20:29:47.728Z,8.95
2023-10-09T20:32:17.405Z,9.73
2023-10-09T20:34:46.652Z,9.77
2023-10-09T20:37:13.859Z,9.30
2023-10-09T20:39:42.755Z,8.57
2023-10-09T20:42:10.315Z,9.30
2023-10-09T20:44:36.783Z,7.93
2023-10-09T20:47:04.298Z,8.68
2023-10-09T20:49:34.111Z,7.85
2023-10-09T20:52:02.977Z,8.23
2023-10-09T20:54:32.114Z,7.70
2023-10-09T20:57:01.311Z,7.57
2023-10-09T20:59:27.745Z,7.63
2023-10-09T21:01:56.787Z,6.72
2023-10-09T21:04:23.348Z,7.25
2023-10-09T21:06:52.220Z,7.53
2023-10-09T21:09:21.114Z,6.78
2023-10-09T21:11:48.158Z,6.10
2023-10-09T21:14:14.601Z,5.40
2023-10-09T21:16:41.209Z,5.47
2023-10-09T21:19:09.949Z,5.40
2023-10-09T21:21:37.766Z,5.20
2023-10-09T21:24:09.009Z,5.15
2023-10-09T21:26:38.274Z,5.20
2023-10-09T21:29:04.750Z,5.05
2023-10-09T21:31:31.192Z,4.75
2023-10-09T21:34:00.500Z,6.53
2023-10-09T21:36:27.105Z,6.35
2023-10-09T21:38:53.485Z,8.13
2023-10-09T21:41:22.683Z,7.82
2023-10-09T21:43:55.630Z,7.55
2023-10-09T21:46:26.204Z,7.60
2023-10-09T21:48:52.955Z,7.18
2023-10-09T21:51:19.398Z,7.28
2023-10-09T21:53:48.300Z,6.90
2023-10-09T21:56:15.577Z,7.25
2023-10-09T21:58:43.133Z,5.90
2023-10-09T22:01:10.694Z,6.30
2023-10-09T22:03:37.615Z,6.75
2023-10-09T22:06:06.573Z,5.22
2023-10-09T22:08:35.479Z,5.50
2023-10-09T22:11:02.907Z,4.82
2023-10-09T22:13:29.616Z,4.95
2023-10-09T22:15:56.066Z,4.80
2023-10-09T22:18:22.935Z,4.63
2023-10-09T22:20:54.812Z,5.07
2023-10-09T22:23:32.106Z,4.78
2023-10-09T22:26:05.178Z,4.93
2023-10-09T22:28:34.271Z,4.68
2023-10-09T22:31:11.597Z,4.57
2023-10-09T22:33:50.652Z,4.65
2023-10-09T22:36:31.260Z,4.55
2023-10-09T22:39:06.328Z,5.45
2023-10-09T22:41:35.610Z,5.05
2023-10-09T22:44:11.766Z,4.78
2023-10-09T22:46:41.046Z,4.70
2023-10-09T22:49:14.919Z,5.07
2023-10-09T22:51:52.060Z,4.43
2023-10-09T22:54:24.343Z,4.60
2023-10-09T22:56:54.303Z,4.50
2023-10-09T22:59:28.258Z,4.88
2023-10-09T23:02:04.058Z,4.60
2023-10-09T23:04:39.360Z,5.70
2023-10-09T23:07:16.363Z,4.45
2023-10-09T23:09:55.489Z,4.55
2023-10-09T23:12:26.312Z,4.82
2023-10-09T23:14:55.503Z,4.68
2023-10-09T23:17:41.972Z,4.88
2023-10-09T23:20:16.211Z,4.60
2023-10-09T23:22:53.130Z,4.43
2023-10-09T23:25:30.840Z,4.90
2023-10-09T23:28:17.047Z,5.00
2023-10-09T23:30:46.010Z,4.82
2023-10-09T23:33:23.987Z,4.93
2023-10-09T23:36:05.268Z,4.20
2023-10-09T23:38:31.769Z,4.70
2023-10-09T23:40:58.867Z,4.35
2023-10-09T23:43:31.275Z,4.90
2023-10-09T23:45:59.270Z,4.55
2023-10-09T23:48:28.226Z,4.63
2023-10-09T23:50:56.928Z,4.90
2023-10-09T23:53:29.879Z,4.55
2023-10-09T23:56:04.327Z,4.80
2023-10-09T23:58:36.363Z,5.15
